sensor_id;sensor_type;location;lat;lon;timestamp;pressure;altitude;pressure_sealevel;temperature;humidity
69766;BME280;57039;48.014;21.384;2022-08-01T00:05:07;100335.87;;;18.44;97.96
69766;BME280;57039;48.014;21.384;2022-08-01T00:15:12;100336.16;;;18.41;97.92
69766;BME280;57039;48.014;21.384;2022-08-01T00:25:16;100352.63;;;18.25;97.46
69766;BME280;57039;48.014;21.384;2022-08-01T00:35:19;100343.97;;;18.23;97.55
69766;BME280;57039;48.014;21.384;2022-08-01T00:45:22;100361.31;;;18.37;97.61
69766;BME280;57039;48.014;21.384;2022-08-01T00:55:28;100354.03;;;18.29;98.56
69766;BME280;57039;48.014;21.384;2022-08-01T01:05:36;100359.06;;;18.32;99.42
69766;BME280;57039;48.014;21.384;2022-08-01T01:15:51;100352.09;;;18.31;98.11
69766;BME280;57039;48.014;21.384;2022-08-01T01:36:18;100359.19;;;18.11;98.56
69766;BME280;57039;48.014;21.384;2022-08-01T01:46:25;100352.47;;;18.17;98.05
69766;BME280;57039;48.014;21.384;2022-08-01T01:56:30;100352.75;;;18.14;98.22
69766;BME280;57039;48.014;21.384;2022-08-01T02:06:35;100356.06;;;18.06;96.22
69766;BME280;57039;48.014;21.384;2022-08-01T02:16:42;100348.44;;;18.13;96.45
69766;BME280;57039;48.014;21.384;2022-08-01T02:26:49;100349.25;;;18.13;97.45
69766;BME280;57039;48.014;21.384;2022-08-01T02:36:54;100364.31;;;17.93;98.30
69766;BME280;57039;48.014;21.384;2022-08-01T02:47:03;100354.78;;;17.81;100.00
69766;BME280;57039;48.014;21.384;2022-08-01T02:57:07;100354.53;;;17.94;99.87
69766;BME280;57039;48.014;21.384;2022-08-01T03:07:15;100350.03;;;17.85;99.67
69766;BME280;57039;48.014;21.384;2022-08-01T03:17:23;100349.78;;;17.97;99.04
69766;BME280;57039;48.014;21.384;2022-08-01T03:27:27;100350.09;;;18.04;97.31
69766;BME280;57039;48.014;21.384;2022-08-01T03:37:42;100350.91;;;18.05;96.19
69766;BME280;57039;48.014;21.384;2022-08-01T03:48:12;100343.34;;;17.90;95.66
69766;BME280;57039;48.014;21.384;2022-08-01T03:58:16;100348.50;;;17.92;96.45
69766;BME280;57039;48.014;21.384;2022-08-01T04:08:20;100342.25;;;18.12;94.82
69766;BME280;57039;48.014;21.384;2022-08-01T04:18:31;100343.13;;;18.13;98.38
69766;BME280;57039;48.014;21.384;2022-08-01T04:28:36;100358.78;;;18.25;97.95
69766;BME280;57039;48.014;21.384;2022-08-01T04:38:40;100365.91;;;18.25;97.72
69766;BME280;57039;48.014;21.384;2022-08-01T04:48:45;100366.03;;;18.33;95.51
69766;BME280;57039;48.014;21.384;2022-08-01T04:58:48;100358.34;;;18.30;95.07
69766;BME280;57039;48.014;21.384;2022-08-01T05:09:21;100374.06;;;18.43;95.99
69766;BME280;57039;48.014;21.384;2022-08-01T05:19:24;100369.00;;;18.69;95.66
69766;BME280;57039;48.014;21.384;2022-08-01T05:29:27;100356.88;;;18.76;95.05
69766;BME280;57039;48.014;21.384;2022-08-01T05:39:31;100380.78;;;18.96;95.48
69766;BME280;57039;48.014;21.384;2022-08-01T05:49:34;100385.00;;;18.88;96.95
69766;BME280;57039;48.014;21.384;2022-08-01T05:59:37;100385.84;;;18.79;95.34
69766;BME280;57039;48.014;21.384;2022-08-01T06:09:40;100400.22;;;19.06;94.50
69766;BME280;57039;48.014;21.384;2022-08-01T06:19:43;100403.31;;;19.01;94.36
69766;BME280;57039;48.014;21.384;2022-08-01T06:29:46;100421.34;;;19.27;93.70
69766;BME280;57039;48.014;21.384;2022-08-01T06:39:59;100421.69;;;19.51;93.09
69766;BME280;57039;48.014;21.384;2022-08-01T06:50:04;100426.97;;;19.61;93.05
69766;BME280;57039;48.014;21.384;2022-08-01T07:00:12;100433.34;;;19.31;92.88
69766;BME280;57039;48.014;21.384;2022-08-01T07:10:16;100444.41;;;19.46;92.43
69766;BME280;57039;48.014;21.384;2022-08-01T07:20:19;100442.94;;;19.80;93.61
69766;BME280;57039;48.014;21.384;2022-08-01T07:30:23;100440.81;;;20.12;91.59
69766;BME280;57039;48.014;21.384;2022-08-01T07:40:26;100434.63;;;20.39;89.67
69766;BME280;57039;48.014;21.384;2022-08-01T07:50:29;100433.22;;;20.17;90.64
69766;BME280;57039;48.014;21.384;2022-08-01T08:00:35;100431.88;;;20.30;88.98
69766;BME280;57039;48.014;21.384;2022-08-01T08:10:38;100431.59;;;20.97;84.29
69766;BME280;57039;48.014;21.384;2022-08-01T08:20:43;100438.34;;;21.09;85.16
69766;BME280;57039;48.014;21.384;2022-08-01T08:30:46;100449.94;;;21.00;82.83
69766;BME280;57039;48.014;21.384;2022-08-01T08:40:49;100447.94;;;20.84;82.83
69766;BME280;57039;48.014;21.384;2022-08-01T08:50:52;100453.56;;;21.17;81.45
69766;BME280;57039;48.014;21.384;2022-08-01T09:00:56;100456.97;;;21.97;77.47
69766;BME280;57039;48.014;21.384;2022-08-01T09:10:59;100455.94;;;21.98;75.68
69766;BME280;57039;48.014;21.384;2022-08-01T09:31:16;100466.75;;;22.65;71.68
69766;BME280;57039;48.014;21.384;2022-08-01T09:41:30;100466.81;;;23.06;69.30
69766;BME280;57039;48.014;21.384;2022-08-01T09:51:41;100463.28;;;24.27;62.73
69766;BME280;57039;48.014;21.384;2022-08-01T10:02:02;100460.16;;;24.77;59.85
69766;BME280;57039;48.014;21.384;2022-08-01T10:12:05;100462.44;;;24.26;62.15
69766;BME280;57039;48.014;21.384;2022-08-01T10:22:12;100464.09;;;24.27;62.82
69766;BME280;57039;48.014;21.384;2022-08-01T10:32:22;100471.97;;;23.81;62.37
69766;BME280;57039;48.014;21.384;2022-08-01T10:42:26;100461.56;;;24.26;63.55
69766;BME280;57039;48.014;21.384;2022-08-01T10:52:30;100469.94;;;24.31;63.57
69766;BME280;57039;48.014;21.384;2022-08-01T11:02:41;100464.13;;;23.72;63.76
69766;BME280;57039;48.014;21.384;2022-08-01T11:12:47;100458.13;;;24.17;62.92
69766;BME280;57039;48.014;21.384;2022-08-01T11:33:04;100459.69;;;24.34;64.03
69766;BME280;57039;48.014;21.384;2022-08-01T11:53:16;100437.91;;;25.15;59.78
69766;BME280;57039;48.014;21.384;2022-08-01T12:03:25;100428.88;;;26.19;55.10
69766;BME280;57039;48.014;21.384;2022-08-01T12:13:42;100417.72;;;26.74;53.53
69766;BME280;57039;48.014;21.384;2022-08-01T12:24:00;100406.53;;;28.37;48.25
69766;BME280;57039;48.014;21.384;2022-08-01T12:34:25;100398.31;;;28.59;48.33
69766;BME280;57039;48.014;21.384;2022-08-01T12:44:29;100394.91;;;28.30;49.12
69766;BME280;57039;48.014;21.384;2022-08-01T12:54:59;100396.03;;;28.49;47.67
69766;BME280;57039;48.014;21.384;2022-08-01T13:05:04;100402.78;;;28.25;48.30
69766;BME280;57039;48.014;21.384;2022-08-01T13:15:27;100396.91;;;28.15;45.33
69766;BME280;57039;48.014;21.384;2022-08-01T13:25:33;100388.06;;;28.34;43.60
69766;BME280;57039;48.014;21.384;2022-08-01T13:35:37;100381.84;;;28.40;41.00
69766;BME280;57039;48.014;21.384;2022-08-01T13:45:40;100383.25;;;28.23;42.99
69766;BME280;57039;48.014;21.384;2022-08-01T13:55:46;100387.75;;;28.03;44.42
69766;BME280;57039;48.014;21.384;2022-08-01T14:05:50;100381.59;;;27.39;43.20
69766;BME280;57039;48.014;21.384;2022-08-01T14:16:00;100385.00;;;27.54;42.65
69766;BME280;57039;48.014;21.384;2022-08-01T14:26:04;100392.50;;;27.31;45.40
69766;BME280;57039;48.014;21.384;2022-08-01T14:36:13;100381.34;;;27.34;46.63
69766;BME280;57039;48.014;21.384;2022-08-01T14:46:32;100382.19;;;27.13;47.15
69766;BME280;57039;48.014;21.384;2022-08-01T14:56:35;100385.38;;;26.95;46.98
69766;BME280;57039;48.014;21.384;2022-08-01T15:06:39;100390.69;;;26.46;47.47
69766;BME280;57039;48.014;21.384;2022-08-01T15:16:42;100392.75;;;26.44;48.94
69766;BME280;57039;48.014;21.384;2022-08-01T15:26:46;100387.53;;;26.21;49.19
69766;BME280;57039;48.014;21.384;2022-08-01T15:36:48;100391.09;;;26.06;51.41
69766;BME280;57039;48.014;21.384;2022-08-01T15:46:52;100387.13;;;25.87;50.26
69766;BME280;57039;48.014;21.384;2022-08-01T15:56:55;100387.97;;;25.88;50.65
69766;BME280;57039;48.014;21.384;2022-08-01T16:06:59;100379.25;;;25.71;52.31
69766;BME280;57039;48.014;21.384;2022-08-01T16:17:03;100387.75;;;25.60;52.32
69766;BME280;57039;48.014;21.384;2022-08-01T16:27:06;100396.91;;;25.36;53.83
69766;BME280;57039;48.014;21.384;2022-08-01T16:37:10;100390.88;;;25.34;52.47
69766;BME280;57039;48.014;21.384;2022-08-01T16:47:15;100388.22;;;24.96;53.74
69766;BME280;57039;48.014;21.384;2022-08-01T16:57:21;100386.69;;;24.78;52.18
69766;BME280;57039;48.014;21.384;2022-08-01T17:07:25;100370.09;;;24.52;53.04
69766;BME280;57039;48.014;21.384;2022-08-01T17:17:32;100370.38;;;24.34;54.67
69766;BME280;57039;48.014;21.384;2022-08-01T17:27:35;100389.28;;;24.09;54.79
69766;BME280;57039;48.014;21.384;2022-08-01T17:37:41;100397.47;;;23.77;54.61
69766;BME280;57039;48.014;21.384;2022-08-01T17:47:45;100401.50;;;23.64;55.68
69766;BME280;57039;48.014;21.384;2022-08-01T17:57:53;100411.59;;;23.30;57.79
69766;BME280;57039;48.014;21.384;2022-08-01T18:07:56;100431.84;;;22.83;62.21
69766;BME280;57039;48.014;21.384;2022-08-01T18:18:04;100434.81;;;22.55;63.93
69766;BME280;57039;48.014;21.384;2022-08-01T18:28:07;100440.72;;;22.25;66.86
69766;BME280;57039;48.014;21.384;2022-08-01T18:38:31;100444.66;;;22.13;69.13
69766;BME280;57039;48.014;21.384;2022-08-01T18:48:36;100460.66;;;21.44;74.09
69766;BME280;57039;48.014;21.384;2022-08-01T18:58:40;100472.03;;;21.10;74.73
69766;BME280;57039;48.014;21.384;2022-08-01T19:08:44;100473.34;;;21.06;73.43
69766;BME280;57039;48.014;21.384;2022-08-01T19:18:47;100487.03;;;21.11;73.92
69766;BME280;57039;48.014;21.384;2022-08-01T19:28:54;100498.56;;;20.76;77.74
69766;BME280;57039;48.014;21.384;2022-08-01T19:38:58;100492.91;;;20.61;79.06
69766;BME280;57039;48.014;21.384;2022-08-01T19:49:02;100510.69;;;20.33;81.36
69766;BME280;57039;48.014;21.384;2022-08-01T19:59:06;100524.53;;;20.46;82.41
69766;BME280;57039;48.014;21.384;2022-08-01T20:09:12;100517.84;;;20.33;84.76
69766;BME280;57039;48.014;21.384;2022-08-01T20:19:17;100518.91;;;20.40;84.43
69766;BME280;57039;48.014;21.384;2022-08-01T20:29:23;100514.53;;;20.21;83.98
69766;BME280;57039;48.014;21.384;2022-08-01T20:39:28;100524.00;;;20.05;84.55
69766;BME280;57039;48.014;21.384;2022-08-01T20:49:35;100529.06;;;19.89;86.37
69766;BME280;57039;48.014;21.384;2022-08-01T20:59:58;100535.31;;;20.17;86.26
69766;BME280;57039;48.014;21.384;2022-08-01T21:10:10;100539.97;;;20.05;86.56
69766;BME280;57039;48.014;21.384;2022-08-01T21:20:15;100547.28;;;19.94;87.68
69766;BME280;57039;48.014;21.384;2022-08-01T21:30:20;100542.97;;;19.93;88.04
69766;BME280;57039;48.014;21.384;2022-08-01T21:40:25;100544.34;;;19.97;88.47
69766;BME280;57039;48.014;21.384;2022-08-01T21:50:28;100548.03;;;19.76;90.30
69766;BME280;57039;48.014;21.384;2022-08-01T22:00:39;100557.50;;;20.08;89.14
69766;BME280;57039;48.014;21.384;2022-08-01T22:10:42;100567.03;;;20.01;88.75
69766;BME280;57039;48.014;21.384;2022-08-01T22:20:46;100565.97;;;19.84;91.45
69766;BME280;57039;48.014;21.384;2022-08-01T22:30:51;100562.06;;;19.69;92.47
69766;BME280;57039;48.014;21.384;2022-08-01T22:41:05;100567.91;;;19.82;92.35
69766;BME280;57039;48.014;21.384;2022-08-01T22:51:21;100556.25;;;20.02;91.43
69766;BME280;57039;48.014;21.384;2022-08-01T23:01:28;100563.78;;;20.07;91.01
69766;BME280;57039;48.014;21.384;2022-08-01T23:11:32;100566.94;;;19.64;91.88
69766;BME280;57039;48.014;21.384;2022-08-01T23:21:36;100565.97;;;19.35;93.26
69766;BME280;57039;48.014;21.384;2022-08-01T23:31:43;100570.72;;;19.32;94.15
69766;BME280;57039;48.014;21.384;2022-08-01T23:42:06;100562.59;;;19.53;93.08
69766;BME280;57039;48.014;21.384;2022-08-01T23:52:10;100574.78;;;19.46;92.62
